Time;durP1;ratioP1;P1;durP2;ratioP2;P2;SDS_P1;SDS_P2;PMS_P1;PMS_P2;Temp;Humidity;BMP_temperature;BMP_pressure;BME280_temperature;BME280_humidity;BME280_pressure;Samples;Min_cycle;Max_cycle;Signal;HPM_P1;HPM_P2
2022/08/19 00:01:24;;;;;;;14.07;10.37;;;18.90;66.30;;;;;;5000483;28;46412;-67
2022/08/19 00:03:50;;;;;;;13.87;9.63;;;19.00;66.40;;;;;;4999496;28;47175;-67
2022/08/19 00:06:16;;;;;;;15.27;10.40;;;19.00;76.10;;;;;;4993718;28;46523;-68
2022/08/19 00:08:42;;;;;;;20.93;10.53;;;19.00;70.70;;;;;;4997843;28;45857;-67
2022/08/19 00:11:09;;;;;;;16.23;11.30;;;19.10;71.40;;;;;;4999403;28;46670;-66
2022/08/19 00:13:36;;;;;;;18.23;12.00;;;;;;;;;;4999549;28;46434;-66
2022/08/19 00:16:02;;;;;;;19.30;13.57;;;18.80;70.90;;;;;;4999535;28;46467;-66
2022/08/19 00:18:28;;;;;;;24.20;15.37;;;19.20;75.60;;;;;;4996826;28;46592;-66
2022/08/19 00:20:54;;;;;;;20.57;14.10;;;;;;;;;;5001021;28;46657;-66
2022/08/19 00:23:20;;;;;;;29.30;14.10;;;;;;;;;;4999706;28;46910;-66
2022/08/19 00:25:46;;;;;;;19.73;14.00;;;;;;;;;;4997006;28;46695;-66
2022/08/19 00:28:12;;;;;;;21.77;14.30;;;18.90;74.30;;;;;;4999596;28;46489;-66
2022/08/19 00:30:38;;;;;;;23.03;14.93;;;;;;;;;;4999254;28;46420;-66
2022/08/19 00:33:04;;;;;;;18.17;13.10;;;;;;;;;;4999678;28;46878;-66
2022/08/19 00:35:29;;;;;;;18.07;12.47;;;19.20;73.60;;;;;;4998562;28;46439;-66
2022/08/19 00:37:55;;;;;;;19.80;12.63;;;;;;;;;;4999880;28;46506;-66
2022/08/19 00:40:21;;;;;;;25.70;12.80;;;19.00;64.90;;;;;;4999112;28;46471;-66
2022/08/19 00:42:48;;;;;;;16.97;11.90;;;;;;;;;;5000521;28;46966;-66
2022/08/19 00:45:19;;;;;;;21.30;13.07;;;19.10;64.60;;;;;;5000205;28;45826;-68
2022/08/19 00:47:45;;;;;;;21.43;12.03;;;19.00;65.30;;;;;;4998761;28;46807;-67
2022/08/19 00:50:13;;;;;;;19.13;13.43;;;19.30;64.50;;;;;;4999119;28;47406;-67
2022/08/19 00:52:44;;;;;;;22.00;14.70;;;19.10;70.70;;;;;;4999648;28;46340;-66
2022/08/19 00:55:14;;;;;;;22.90;14.07;;;19.10;64.20;;;;;;4995686;28;46415;-67
2022/08/19 00:57:45;;;;;;;20.20;13.40;;;19.20;64.10;;;;;;4997847;28;45858;-66
2022/08/19 01:00:15;;;;;;;17.80;13.27;;;19.10;63.80;;;;;;4996120;28;46423;-66
2022/08/19 01:02:42;;;;;;;21.10;13.20;;;19.10;63.70;;;;;;4999094;28;46570;-66
2022/08/19 01:05:24;;;;;;;19.83;13.27;;;19.20;68.90;;;;;;5002014;28;46507;-65
2022/08/19 01:07:50;;;;;;;22.20;14.27;;;19.50;67.70;;;;;;5002125;28;46310;-67
2022/08/19 01:10:19;;;;;;;19.20;14.50;;;19.00;73.10;;;;;;5002360;28;46496;-67
2022/08/19 01:12:46;;;;;;;27.13;14.90;;;19.10;63.80;;;;;;5003171;28;46660;-66
2022/08/19 01:15:15;;;;;;;23.43;15.10;;;19.10;63.80;;;;;;5002283;28;46280;-67
2022/08/19 01:17:42;;;;;;;21.73;14.80;;;19.40;69.80;;;;;;5001657;28;46385;-66
2022/08/19 01:20:20;;;;;;;23.17;14.70;;;19.20;63.40;;;;;;4999774;28;45899;-66
2022/08/19 01:22:54;;;;;;;19.40;13.80;;;19.20;63.40;;;;;;5002730;28;47389;-66
2022/08/19 01:25:24;;;;;;;20.87;14.33;;;19.20;64.00;;;;;;5002029;28;46438;-67
2022/08/19 01:27:50;;;;;;;21.63;15.13;;;19.30;70.50;;;;;;5001479;28;46444;-67
2022/08/19 01:30:24;;;;;;;19.53;13.90;;;19.30;63.40;;;;;;4999130;28;46578;-67
2022/08/19 01:32:51;;;;;;;19.83;14.50;;;19.20;70.80;;;;;;5002332;28;47390;-66
2022/08/19 01:35:17;;;;;;;19.67;13.53;;;19.20;69.50;;;;;;5002116;28;47531;-67
2022/08/19 01:37:49;;;;;;;17.07;12.43;;;19.20;64.00;;;;;;5001245;28;46229;-67
2022/08/19 01:40:16;;;;;;;22.23;14.63;;;19.10;71.50;;;;;;4999638;28;46459;-66
2022/08/19 01:42:41;;;;;;;19.90;13.60;;;19.20;64.60;;;;;;5000948;28;46397;-67
2022/08/19 01:45:08;;;;;;;20.07;13.77;;;19.10;64.10;;;;;;5000051;28;46535;-67
2022/08/19 01:47:36;;;;;;;19.07;14.20;;;19.20;64.20;;;;;;5000057;28;46471;-66
2022/08/19 01:50:02;;;;;;;21.73;15.50;;;;;;;;;;5000348;28;46606;-68
2022/08/19 01:52:27;;;;;;;20.97;15.30;;;;;;;;;;5002282;28;46454;-67
2022/08/19 01:54:53;;;;;;;21.10;14.20;;;19.10;67.20;;;;;;5001687;28;46407;-68
2022/08/19 01:57:19;;;;;;;21.70;14.60;;;;;;;;;;5001873;28;46468;-67
2022/08/19 01:59:45;;;;;;;21.73;14.27;;;;;;;;;;5001160;28;46649;-67
2022/08/19 02:02:12;;;;;;;22.03;14.80;;;;;;;;;;5000730;28;46448;-67
2022/08/19 02:04:38;;;;;;;19.90;13.03;;;19.20;63.90;;;;;;5001238;28;45877;-66
2022/08/19 02:07:04;;;;;;;18.90;13.20;;;18.90;64.60;;;;;;4997820;28;46487;-67
2022/08/19 02:09:32;;;;;;;19.07;13.63;;;18.80;63.60;;;;;;5000207;28;46502;-65
2022/08/19 02:11:58;;;;;;;19.67;14.07;;;;;;;;;;5001303;28;46133;-67
2022/08/19 02:14:24;;;;;;;20.80;14.67;;;;;;;;;;4999905;28;46339;-66
2022/08/19 02:16:50;;;;;;;23.03;15.07;;;;;;;;;;5001335;28;46490;-66
2022/08/19 02:19:15;;;;;;;21.13;14.67;;;19.20;70.00;;;;;;5000593;28;46452;-66
2022/08/19 02:21:43;;;;;;;22.53;14.93;;;;;;;;;;5000050;28;46382;-65
2022/08/19 02:24:09;;;;;;;20.63;13.67;;;;;;;;;;5000642;28;46654;-67
2022/08/19 02:26:35;;;;;;;22.77;14.83;;;;;;;;;;5000292;28;46724;-66
2022/08/19 02:29:01;;;;;;;22.70;15.77;;;;;;;;;;4999021;28;46371;-66
2022/08/19 02:31:27;;;;;;;21.77;15.27;;;19.20;65.30;;;;;;5000569;28;46938;-67
2022/08/19 02:33:55;;;;;;;25.70;17.03;;;19.20;63.60;;;;;;5001939;28;46338;-66
2022/08/19 02:36:21;;;;;;;22.80;14.30;;;18.90;69.20;;;;;;4999569;28;46391;-66
2022/08/19 02:38:47;;;;;;;22.07;15.03;;;19.10;72.60;;;;;;5000151;28;46829;-65
2022/08/19 02:41:19;;;;;;;22.30;14.73;;;19.20;69.10;;;;;;4997878;28;48352;-66
2022/08/19 02:43:45;;;;;;;23.70;15.63;;;19.10;63.90;;;;;;4998603;28;46715;-67
2022/08/19 02:46:17;;;;;;;23.07;15.80;;;19.10;64.00;;;;;;5001346;28;46554;-67
2022/08/19 02:48:43;;;;;;;21.23;15.50;;;19.30;68.30;;;;;;4998077;28;46328;-67
2022/08/19 02:51:16;;;;;;;22.67;16.20;;;18.80;65.50;;;;;;5001407;28;46400;-67
2022/08/19 02:53:41;;;;;;;27.80;17.17;;;18.80;65.90;;;;;;4999288;28;46784;-67
2022/08/19 02:56:07;;;;;;;24.70;16.20;;;19.00;64.40;;;;;;4998340;28;46387;-67
2022/08/19 02:58:34;;;;;;;27.30;15.73;;;;;;;;;;4998029;28;46471;-67
2022/08/19 03:00:59;;;;;;;22.03;14.93;;;19.10;64.30;;;;;;4996825;28;46031;-66
2022/08/19 03:03:25;;;;;;;28.60;17.20;;;19.10;66.90;;;;;;4999755;28;46289;-65
2022/08/19 03:05:51;;;;;;;28.00;17.00;;;18.90;67.50;;;;;;5001278;28;46455;-66
2022/08/19 03:08:17;;;;;;;24.13;16.57;;;;;;;;;;5000076;28;46571;-66
2022/08/19 03:10:46;;;;;;;22.13;15.07;;;19.10;64.00;;;;;;5001543;28;46316;-66
2022/08/19 03:13:17;;;;;;;21.00;15.00;;;19.10;64.60;;;;;;4998708;28;46396;-67
2022/08/19 03:15:46;;;;;;;23.03;16.57;;;19.00;64.20;;;;;;5000262;28;45838;-67
2022/08/19 03:18:12;;;;;;;21.47;15.47;;;19.00;70.50;;;;;;4999305;28;46436;-66
2022/08/19 03:20:47;;;;;;;26.93;16.60;;;19.10;69.40;;;;;;4998818;28;46851;-66
2022/08/19 03:23:14;;;;;;;25.43;17.37;;;19.10;68.50;;;;;;4998719;28;46376;-65
2022/08/19 03:25:42;;;;;;;22.63;16.97;;;19.10;63.90;;;;;;4999462;28;46443;-66
2022/08/19 03:28:13;;;;;;;20.43;14.97;;;19.30;68.40;;;;;;4997500;28;46336;-65
2022/08/19 03:30:43;;;;;;;23.53;15.63;;;19.20;63.50;;;;;;4981087;28;48180;-66
2022/08/19 03:33:11;;;;;;;28.00;17.70;;;19.40;76.30;;;;;;5000460;28;46440;-67
2022/08/19 03:35:38;;;;;;;25.23;17.23;;;;;;;;;;4997792;28;46414;-67
2022/08/19 03:38:05;;;;;;;21.43;16.50;;;19.20;63.40;;;;;;4998398;28;45908;-67
2022/08/19 03:40:31;;;;;;;23.30;17.07;;;;;;;;;;5000431;28;46419;-66
2022/08/19 03:42:57;;;;;;;24.60;16.87;;;;;;;;;;4998946;28;46399;-66
2022/08/19 03:45:23;;;;;;;25.43;16.40;;;19.30;63.10;;;;;;4998388;28;46331;-66
2022/08/19 03:47:49;;;;;;;26.50;19.13;;;;;;;;;;4995770;28;46452;-66
2022/08/19 03:50:16;;;;;;;27.83;16.67;;;;;;;;;;5000559;28;46365;-66
2022/08/19 03:52:42;;;;;;;25.87;17.87;;;19.10;76.40;;;;;;4998333;28;46343;-66
2022/08/19 03:55:08;;;;;;;25.03;17.97;;;19.40;63.50;;;;;;5000857;28;46358;-66
2022/08/19 03:57:34;;;;;;;19.97;14.87;;;;;;;;;;4997366;28;46882;-66
2022/08/19 04:00:00;;;;;;;23.43;16.17;;;19.60;73.10;;;;;;4999336;28;46313;-66
2022/08/19 04:02:26;;;;;;;23.60;16.60;;;19.20;64.70;;;;;;4999722;28;46541;-66
2022/08/19 04:04:54;;;;;;;25.07;17.20;;;19.10;63.70;;;;;;5000272;28;46397;-65
2022/08/19 04:07:21;;;;;;;31.27;20.50;;;;;;;;;;4998737;28;46584;-66
2022/08/19 04:09:47;;;;;;;26.20;19.10;;;;;;;;;;5000004;28;46044;-66
2022/08/19 04:12:12;;;;;;;23.70;16.80;;;19.10;65.90;;;;;;5000075;28;46415;-66
2022/08/19 04:14:39;;;;;;;25.67;17.63;;;19.30;67.80;;;;;;4999928;28;46348;-67
2022/08/19 04:17:05;;;;;;;29.73;19.70;;;19.00;75.20;;;;;;4998136;28;45959;-66
2022/08/19 04:19:31;;;;;;;27.97;19.30;;;19.40;77.70;;;;;;4998447;28;46437;-67
2022/08/19 04:21:58;;;;;;;26.90;18.80;;;18.70;63.30;;;;;;4998792;28;46789;-66
2022/08/19 04:24:24;;;;;;;33.70;19.60;;;;;;;;;;4998920;28;46398;-66
2022/08/19 04:26:50;;;;;;;33.93;20.33;;;19.30;63.10;;;;;;4999834;28;46462;-67
2022/08/19 04:29:26;;;;;;;28.37;19.00;;;19.30;62.90;;;;;;4999962;28;46699;-66
2022/08/19 04:31:54;;;;;;;33.70;20.70;;;19.30;63.00;;;;;;5000572;28;46285;-66
2022/08/19 04:34:22;;;;;;;31.80;21.47;;;19.30;62.80;;;;;;4997581;28;46510;-66
2022/08/19 04:36:50;;;;;;;36.70;23.40;;;19.50;77.50;;;;;;4998042;28;46490;-66
2022/08/19 04:39:19;;;;;;;36.70;22.97;;;19.40;63.40;;;;;;4999955;28;47859;-66
2022/08/19 04:44:32;;;;;;;33.47;21.20;;;19.40;62.80;;;;;;5004113;28;46471;-66
2022/08/19 04:46:58;;;;;;;38.43;23.70;;;19.40;62.60;;;;;;5000416;28;46451;-66
2022/08/19 04:49:24;;;;;;;30.20;21.23;;;;;;;;;;5002406;28;46403;-66
2022/08/19 04:51:53;;;;;;;37.80;23.13;;;19.30;62.50;;;;;;5001955;28;46645;-66
2022/08/19 04:54:22;;;;;;;32.93;22.40;;;19.50;77.00;;;;;;5000713;28;46586;-66
2022/08/19 04:56:49;;;;;;;31.00;20.97;;;19.20;64.60;;;;;;5003092;28;46420;-65
2022/08/19 04:59:15;;;;;;;31.73;21.73;;;19.50;65.90;;;;;;5001993;28;46372;-66
2022/08/19 05:01:43;;;;;;;34.17;20.90;;;19.20;71.30;;;;;;5003202;28;46435;-66
2022/08/19 05:04:09;;;;;;;31.47;21.30;;;19.80;63.30;;;;;;5004008;28;46384;-65
2022/08/19 05:06:35;;;;;;;30.17;20.87;;;19.50;69.90;;;;;;5000518;28;46926;-66
2022/08/19 05:09:04;;;;;;;35.17;21.50;;;19.30;62.50;;;;;;5002874;28;46503;-66
2022/08/19 05:11:38;;;;;;;32.30;20.80;;;19.60;62.90;;;;;;5003338;28;46413;-66
2022/08/19 05:14:05;;;;;;;29.43;20.23;;;19.20;70.80;;;;;;5003304;28;46332;-65
2022/08/19 05:16:30;;;;;;;33.70;21.27;;;19.10;65.10;;;;;;5001650;28;46704;-67
2022/08/19 05:24:26;;;;;;;29.60;20.10;;;19.30;76.10;;;;;;5001094;28;46430;-66
2022/08/19 05:26:56;;;;;;;26.43;19.53;;;19.60;63.20;;;;;;5002252;28;46438;-66
2022/08/19 05:29:22;;;;;;;31.90;19.93;;;19.30;76.30;;;;;;4985746;28;46797;-66
2022/08/19 05:31:49;;;;;;;31.03;20.87;;;19.60;62.30;;;;;;5003480;28;46420;-66
2022/08/19 05:34:16;;;;;;;29.90;20.60;;;19.60;72.10;;;;;;5002775;28;46427;-66
2022/08/19 05:36:43;;;;;;;33.90;21.27;;;19.60;62.00;;;;;;5002175;28;46490;-67
2022/08/19 05:39:13;;;;;;;31.43;22.00;;;19.50;62.40;;;;;;5002232;28;47133;-66
2022/08/19 05:41:59;;;;;;;31.37;21.80;;;19.60;62.20;;;;;;5001969;28;46409;-66
2022/08/19 05:44:26;;;;;;;26.83;19.40;;;19.60;75.90;;;;;;5002201;28;45819;-67
2022/08/19 05:46:52;;;;;;;28.50;19.20;;;19.40;64.30;;;;;;5002445;28;46751;-67
2022/08/19 05:49:21;;;;;;;32.63;20.97;;;19.60;62.30;;;;;;4999188;28;46624;-67
2022/08/19 05:51:47;;;;;;;30.30;19.80;;;;;;;;;;5002289;28;46556;-65
2022/08/19 05:54:16;;;;;;;30.10;20.20;;;;;;;;;;4999963;28;46374;-65
2022/08/19 05:56:42;;;;;;;29.50;19.80;;;19.50;73.00;;;;;;5001420;28;46615;-66
2022/08/19 05:59:10;;;;;;;31.40;19.77;;;19.80;76.00;;;;;;5001476;28;47525;-66
2022/08/19 06:01:39;;;;;;;33.93;20.73;;;19.70;76.10;;;;;;4996557;28;47732;-64
2022/08/19 06:04:05;;;;;;;24.73;16.57;;;19.80;63.00;;;;;;4999599;28;46487;-67
2022/08/19 06:06:30;;;;;;;29.13;19.90;;;19.40;74.10;;;;;;4999515;28;46610;-65
2022/08/19 06:08:56;;;;;;;30.03;19.37;;;19.90;67.90;;;;;;4999642;28;47225;-65
2022/08/19 06:11:32;;;;;;;27.13;17.93;;;19.60;62.20;;;;;;5000109;28;46131;-65
2022/08/19 06:13:59;;;;;;;31.87;20.30;;;;;;;;;;4999499;28;46567;-65
2022/08/19 06:16:24;;;;;;;28.47;18.77;;;;;;;;;;4997323;28;46322;-65
2022/08/19 06:18:52;;;;;;;28.27;18.13;;;19.60;62.30;;;;;;5000345;28;46763;-65
2022/08/19 06:21:23;;;;;;;28.43;19.57;;;19.60;62.00;;;;;;4999022;28;46495;-64
2022/08/19 06:23:50;;;;;;;24.20;16.50;;;19.70;61.90;;;;;;4998689;28;46435;-65
2022/08/19 06:26:18;;;;;;;26.63;17.87;;;19.60;74.90;;;;;;4997400;28;46818;-64
2022/08/19 06:28:46;;;;;;;24.57;17.77;;;;;;;;;;4999025;28;46386;-64
2022/08/19 06:31:21;;;;;;;26.40;18.03;;;19.80;61.70;;;;;;4999743;28;46530;-64
2022/08/19 06:33:48;;;;;;;22.97;16.23;;;19.90;61.40;;;;;;5000083;28;45881;-66
2022/08/19 06:36:21;;;;;;;26.10;16.20;;;19.80;61.20;;;;;;4997813;28;46119;-65
2022/08/19 06:38:47;;;;;;;22.67;15.90;;;;;;;;;;4999752;28;46759;-64
2022/08/19 06:41:13;;;;;;;25.77;17.63;;;;;;;;;;5000314;28;46360;-63
2022/08/19 06:43:40;;;;;;;24.27;17.87;;;;;;;;;;5001238;28;46618;-64
2022/08/19 06:46:11;;;;;;;25.23;17.17;;;19.90;61.00;;;;;;4997081;28;46409;-65
2022/08/19 06:48:37;;;;;;;26.67;18.60;;;;;;;;;;4997948;28;46789;-65
2022/08/19 06:51:05;;;;;;;26.67;18.47;;;20.10;74.90;;;;;;4981742;28;46399;-66
2022/08/19 06:53:30;;;;;;;28.70;18.33;;;20.10;74.50;;;;;;5000140;28;46445;-66
2022/08/19 06:56:00;;;;;;;29.70;20.30;;;20.10;75.20;;;;;;4997318;28;46574;-67
2022/08/19 06:58:26;;;;;;;31.13;20.67;;;19.70;73.10;;;;;;4998671;28;46100;-66
2022/08/19 07:00:51;;;;;;;34.10;20.27;;;19.80;64.30;;;;;;4998793;28;46464;-67
2022/08/19 07:03:17;;;;;;;34.00;20.90;;;;;;;;;;4999506;28;46364;-66
2022/08/19 07:05:43;;;;;;;33.50;21.10;;;19.90;61.00;;;;;;4994858;28;46784;-65
2022/08/19 07:08:09;;;;;;;28.07;19.73;;;19.70;68.00;;;;;;4998879;28;47057;-66
2022/08/19 07:10:36;;;;;;;36.63;21.70;;;19.70;67.30;;;;;;4999473;28;46549;-66
2022/08/19 07:13:02;;;;;;;33.37;21.40;;;;;;;;;;5000158;28;46602;-64
2022/08/19 07:15:28;;;;;;;37.53;21.30;;;;;;;;;;4997357;28;46919;-64
2022/08/19 07:17:53;;;;;;;34.30;20.23;;;19.90;63.30;;;;;;4996946;28;47394;-65
2022/08/19 07:20:20;;;;;;;34.37;21.63;;;;;;;;;;4998994;28;46453;-65
2022/08/19 07:22:47;;;;;;;35.57;22.20;;;;;;;;;;4999901;28;46837;-68
2022/08/19 07:25:13;;;;;;;34.63;21.40;;;19.80;74.80;;;;;;4999861;28;46501;-65
2022/08/19 07:27:39;;;;;;;35.50;23.80;;;20.00;69.90;;;;;;4996693;28;46430;-66
2022/08/19 07:30:05;;;;;;;36.90;23.03;;;;;;;;;;4999768;28;46515;-68
2022/08/19 07:32:31;;;;;;;40.70;24.53;;;19.50;67.70;;;;;;4999221;28;46387;-66
2022/08/19 07:34:57;;;;;;;41.73;24.83;;;20.10;65.20;;;;;;4996947;28;46485;-67
2022/08/19 07:37:26;;;;;;;34.63;22.90;;;20.00;61.10;;;;;;4995048;28;46451;-69
2022/08/19 07:39:53;;;;;;;41.87;23.97;;;;;;;;;;4997892;28;46381;-69
2022/08/19 07:42:20;;;;;;;48.73;26.00;;;;;;;;;;4999218;28;46870;-68
2022/08/19 07:44:46;;;;;;;42.20;27.07;;;19.90;71.20;;;;;;4999478;28;46301;-69
2022/08/19 07:47:15;;;;;;;41.00;25.63;;;20.20;76.10;;;;;;4996503;28;46407;-68
2022/08/19 07:49:40;;;;;;;43.97;26.60;;;19.80;63.70;;;;;;4998383;28;46644;-67
2022/08/19 07:52:09;;;;;;;41.60;26.03;;;20.00;76.70;;;;;;5000422;28;46354;-69
2022/08/19 07:54:37;;;;;;;50.23;26.97;;;20.20;61.70;;;;;;4996372;28;46615;-67
2022/08/19 07:57:04;;;;;;;44.07;26.10;;;20.20;73.00;;;;;;4996565;28;47766;-67
2022/08/19 07:59:30;;;;;;;45.43;27.40;;;;;;;;;;4997139;28;46553;-69
2022/08/19 08:01:57;;;;;;;43.00;26.37;;;20.60;73.10;;;;;;4998567;28;46355;-69
2022/08/19 08:09:52;;;;;;;42.67;26.20;;;20.60;69.30;;;;;;4997182;28;46493;-69
2022/08/19 08:12:32;;;;;;;47.67;26.93;;;20.20;63.00;;;;;;4997143;28;46486;-67
2022/08/19 08:15:04;;;;;;;52.10;29.50;;;20.10;61.70;;;;;;4996839;28;46473;-68
2022/08/19 08:17:30;;;;;;;45.83;28.23;;;;;;;;;;4994894;28;47389;-68
2022/08/19 08:19:57;;;;;;;51.97;29.50;;;;;;;;;;4996939;28;45855;-68
2022/08/19 08:25:16;;;;;;;48.53;30.57;;;20.40;60.30;;;;;;4999353;28;46363;-71
2022/08/19 08:27:44;;;;;;;51.70;31.30;;;20.20;74.70;;;;;;4995825;28;46476;-67
2022/08/19 08:30:16;;;;;;;57.93;32.90;;;20.70;75.20;;;;;;4997981;28;46452;-68
2022/08/19 08:32:42;;;;;;;50.17;30.40;;;20.20;75.40;;;;;;4999115;28;45842;-68
2022/08/19 08:35:11;;;;;;;67.03;32.40;;;20.00;60.90;;;;;;4998285;28;46447;-68
2022/08/19 08:37:38;;;;;;;59.67;32.17;;;19.90;61.10;;;;;;4995957;28;47199;-66
2022/08/19 08:40:16;;;;;;;52.33;31.17;;;19.70;61.80;;;;;;4998189;28;46479;-67
2022/08/19 08:42:51;;;;;;;60.70;31.70;;;19.70;61.90;;;;;;4998329;28;46503;-68
2022/08/19 08:45:18;;;;;;;57.80;31.60;;;19.60;62.60;;;;;;4999600;28;46372;-68
2022/08/19 08:47:48;;;;;;;50.37;30.90;;;19.50;62.90;;;;;;4995266;28;46472;-68
2022/08/19 08:50:27;;;;;;;54.07;30.37;;;19.50;67.60;;;;;;4998984;28;46368;-66
2022/08/19 08:52:56;;;;;;;57.43;29.53;;;19.10;80.40;;;;;;4997814;28;45848;-65
2022/08/19 08:55:28;;;;;;;52.00;29.43;;;19.30;79.30;;;;;;4998167;28;46523;-67
2022/08/19 08:58:20;;;;;;;51.23;27.33;;;19.20;64.30;;;;;;4996560;28;47119;-67
2022/08/19 09:00:48;;;;;;;56.10;29.57;;;19.50;69.90;;;;;;4998001;28;46368;-67
2022/08/19 09:03:19;;;;;;;39.83;22.00;;;17.00;62.90;;;;;;4998530;28;46427;-67
2022/08/19 09:05:54;;;;;;;30.63;19.53;;;19.30;64.00;;;;;;4997211;28;46956;-68
2022/08/19 09:08:38;;;;;;;26.87;17.13;;;19.30;63.90;;;;;;4997216;28;46968;-68
2022/08/19 09:11:08;;;;;;;31.50;17.20;;;19.10;75.00;;;;;;4997694;28;46599;-68
2022/08/19 09:13:55;;;;;;;25.73;16.03;;;19.20;64.40;;;;;;4998047;28;46654;-66
2022/08/19 09:16:26;;;;;;;22.30;14.23;;;19.20;64.30;;;;;;4995704;28;45776;-71
2022/08/19 09:18:57;;;;;;;28.13;15.93;;;19.50;65.80;;;;;;4997126;28;46903;-70
2022/08/19 09:21:24;;;;;;;27.13;16.07;;;;;;;;;;4995915;28;46473;-66
2022/08/19 09:23:50;;;;;;;24.33;15.43;;;;;;;;;;4998757;28;46519;-68
2022/08/19 09:26:19;;;;;;;28.43;17.07;;;19.50;74.50;;;;;;4998440;28;45962;-67
2022/08/19 09:28:46;;;;;;;29.43;19.00;;;19.30;63.80;;;;;;4999731;28;46345;-67
2022/08/19 09:31:14;;;;;;;37.97;19.13;;;19.60;79.90;;;;;;5001311;28;45824;-68
2022/08/19 09:33:43;;;;;;;39.80;20.20;;;19.20;74.20;;;;;;4997972;28;46422;-66
2022/08/19 09:36:11;;;;;;;35.40;20.00;;;19.10;63.60;;;;;;4999909;28;46438;-67
2022/08/19 09:38:40;;;;;;;40.30;20.80;;;;;;;;;;4999311;28;47162;-66
2022/08/19 09:41:08;;;;;;;35.50;21.03;;;19.40;63.70;;;;;;4998373;28;46383;-68
2022/08/19 09:43:36;;;;;;;39.77;21.80;;;19.70;68.50;;;;;;4998325;28;46379;-66
2022/08/19 09:46:05;;;;;;;31.53;17.63;;;19.30;63.80;;;;;;4998643;28;46444;-68
2022/08/19 09:48:31;;;;;;;26.87;14.33;;;;;;;;;;4998183;28;46481;-69
2022/08/19 09:51:03;;;;;;;20.53;12.40;;;19.10;65.20;;;;;;5001539;28;46827;-66
2022/08/19 09:53:29;;;;;;;19.37;10.93;;;;;;;;;;5002082;28;46790;-66
2022/08/19 09:55:56;;;;;;;19.27;10.53;;;;;;;;;;4999930;28;46439;-68
2022/08/19 09:58:27;;;;;;;19.73;10.47;;;;;;;;;;4999868;28;46300;-69
2022/08/19 10:00:53;;;;;;;17.13;10.30;;;;;;;;;;4998337;28;46633;-68
2022/08/19 10:03:19;;;;;;;19.20;10.73;;;;;;;;;;5000766;28;46067;-67
2022/08/19 10:05:48;;;;;;;21.23;11.07;;;;;;;;;;4999752;28;46607;-68
2022/08/19 10:08:15;;;;;;;14.80;10.93;;;18.00;67.80;;;;;;4997574;28;46483;-68
2022/08/19 10:10:44;;;;;;;12.50;8.87;;;18.80;67.60;;;;;;4998401;28;46857;-66
2022/08/19 10:13:10;;;;;;;13.90;7.90;;;18.90;76.20;;;;;;4997992;28;46478;-68
2022/08/19 10:15:39;;;;;;;15.63;6.87;;;19.10;80.60;;;;;;4998364;28;46447;-67
2022/08/19 10:18:05;;;;;;;11.93;6.77;;;18.80;68.50;;;;;;4998628;28;46415;-68
2022/08/19 10:20:31;;;;;;;19.30;7.40;;;18.60;68.20;;;;;;4999970;28;46454;-67
2022/08/19 10:22:59;;;;;;;13.43;7.30;;;;;;;;;;4999017;28;45897;-68
2022/08/19 10:25:26;;;;;;;63.40;10.10;;;18.80;82.00;;;;;;4996986;28;46396;-67
2022/08/19 10:27:52;;;;;;;16.57;8.40;;;;;;;;;;4997180;28;46780;-68
2022/08/19 10:30:18;;;;;;;14.83;8.07;;;;;;;;;;5000024;28;46542;-70
2022/08/19 10:32:45;;;;;;;14.30;8.07;;;;;;;;;;4999785;28;46498;-70
2022/08/19 10:35:12;;;;;;;15.10;9.03;;;;;;;;;;5000917;28;47039;-66
2022/08/19 10:37:38;;;;;;;14.57;7.80;;;;;;;;;;4996962;28;46616;-68
2022/08/19 10:40:07;;;;;;;11.33;7.30;;;19.40;67.60;;;;;;4997043;28;45808;-67
2022/08/19 10:42:33;;;;;;;10.33;6.97;;;;;;;;;;4995123;28;46364;-67
2022/08/19 10:44:59;;;;;;;11.03;7.30;;;;;;;;;;4999213;28;46840;-68
2022/08/19 10:47:25;;;;;;;13.10;7.33;;;;;;;;;;4997618;28;46525;-66
2022/08/19 10:52:36;;;;;;;14.47;7.90;;;18.90;71.60;;;;;;4997057;28;46301;-67
2022/08/19 10:57:52;;;;;;;9.83;6.53;;;18.60;84.20;;;;;;5003625;28;46895;-67
2022/08/19 11:00:22;;;;;;;8.30;5.73;;;19.00;72.70;;;;;;4996825;28;46055;-65
2022/08/19 11:02:49;;;;;;;10.60;6.43;;;;;;;;;;5000063;28;45752;-66
2022/08/19 11:05:15;;;;;;;10.17;7.30;;;;;;;;;;4998186;28;46655;-67
2022/08/19 11:07:42;;;;;;;11.30;6.40;;;18.80;69.90;;;;;;4997824;28;46797;-67
2022/08/19 11:10:10;;;;;;;10.33;5.77;;;19.00;83.60;;;;;;4997590;28;46621;-67
2022/08/19 11:12:40;;;;;;;10.33;5.53;;;18.70;70.30;;;;;;4998813;28;46406;-66
2022/08/19 11:15:08;;;;;;;9.67;5.57;;;18.70;70.30;;;;;;4999697;28;46619;-66
2022/08/19 11:17:35;;;;;;;9.00;5.80;;;18.70;70.60;;;;;;4997203;28;46356;-66
2022/08/19 11:20:04;;;;;;;11.63;6.20;;;18.60;79.40;;;;;;4999398;28;46422;-65
2022/08/19 11:22:30;;;;;;;10.37;6.83;;;;;;;;;;4999616;28;46388;-64
2022/08/19 11:24:56;;;;;;;8.73;6.07;;;18.60;73.40;;;;;;4998174;28;46525;-64
2022/08/19 11:27:21;;;;;;;11.97;6.67;;;18.60;75.40;;;;;;4996928;28;47255;-66
2022/08/19 11:29:47;;;;;;;10.70;6.03;;;;;;;;;;4981550;28;46369;-65
2022/08/19 11:32:14;;;;;;;11.03;6.17;;;;;;;;;;4998477;28;46458;-66
2022/08/19 11:34:40;;;;;;;11.13;6.73;;;18.90;70.60;;;;;;4996623;28;46568;-65
2022/08/19 11:37:06;;;;;;;9.90;6.57;;;18.90;70.40;;;;;;4996619;28;46837;-65
2022/08/19 11:39:35;;;;;;;12.10;6.30;;;19.00;70.30;;;;;;4998015;28;46352;-65
2022/08/19 11:42:54;;;;;;;9.57;6.40;;;19.20;73.80;;;;;;4981499;28;46370;-65
2022/08/19 11:44:47;;;;;;;10.20;6.30;;;;;;;;;;4995590;28;46499;-65
2022/08/19 11:47:13;;;;;;;10.20;6.77;;;19.80;81.80;;;;;;4994235;28;46908;-67
2022/08/19 11:49:39;;;;;;;11.97;7.90;;;;;;;;;;4997010;28;46463;-66
2022/08/19 11:52:04;;;;;;;14.00;7.40;;;19.80;78.50;;;;;;5000520;28;46508;-68
2022/08/19 11:54:30;;;;;;;10.97;7.50;;;19.70;74.00;;;;;;4997536;28;46590;-67
2022/08/19 11:56:56;;;;;;;11.23;7.30;;;;;;;;;;4996525;28;46816;-67
2022/08/19 11:59:22;;;;;;;9.33;6.30;;;;;;;;;;4998088;28;46727;-67
2022/08/19 12:01:48;;;;;;;11.50;7.07;;;;;;;;;;4995464;28;46723;-68
2022/08/19 12:04:14;;;;;;;11.97;7.40;;;;;;;;;;4998346;28;46609;-67
2022/08/19 12:06:40;;;;;;;8.90;5.90;;;19.90;68.40;;;;;;4996238;28;46499;-67
2022/08/19 12:09:09;;;;;;;9.97;5.87;;;20.00;80.60;;;;;;4998064;28;46332;-68
2022/08/19 12:11:36;;;;;;;7.40;5.27;;;19.90;79.90;;;;;;4997953;28;45757;-69
2022/08/19 12:14:02;;;;;;;7.00;5.00;;;20.00;80.40;;;;;;4999068;28;46471;-68
2022/08/19 12:16:30;;;;;;;7.27;4.87;;;20.50;80.30;;;;;;4996741;28;46967;-68
2022/08/19 12:18:57;;;;;;;7.33;3.93;;;20.60;67.00;;;;;;4998082;28;45855;-68
2022/08/19 12:21:28;;;;;;;6.43;4.27;;;20.70;66.40;;;;;;4998224;28;46963;-68
2022/08/19 12:23:55;;;;;;;5.97;4.27;;;21.00;75.70;;;;;;4997614;28;46322;-68
2022/08/19 12:26:21;;;;;;;5.60;4.03;;;21.50;71.50;;;;;;4995623;28;46431;-69
2022/08/19 12:28:47;;;;;;;5.50;3.50;;;;;;;;;;4998142;28;46635;-68
2022/08/19 12:31:14;;;;;;;5.40;3.33;;;21.80;77.00;;;;;;4997019;28;46372;-68
2022/08/19 12:33:41;;;;;;;6.17;2.73;;;22.10;61.70;;;;;;4996989;28;46337;-68
2022/08/19 12:36:10;;;;;;;3.43;2.43;;;22.10;61.80;;;;;;4995960;28;46483;-69
2022/08/19 12:38:36;;;;;;;3.70;2.47;;;22.10;61.30;;;;;;4996746;28;46489;-70
2022/08/19 12:41:06;;;;;;;3.90;2.60;;;22.30;63.30;;;;;;4995017;28;46372;-69
2022/08/19 12:43:32;;;;;;;3.50;2.27;;;;;;;;;;4997401;28;46966;-69
2022/08/19 12:45:58;;;;;;;5.40;2.23;;;;;;;;;;4996704;28;46400;-69
2022/08/19 12:48:24;;;;;;;3.90;2.57;;;;;;;;;;4994714;28;46921;-69
2022/08/19 12:50:49;;;;;;;3.77;2.40;;;22.70;63.90;;;;;;4984402;28;46567;-68
2022/08/19 12:53:15;;;;;;;3.60;2.50;;;;;;;;;;4998952;28;46237;-69
2022/08/19 12:55:45;;;;;;;3.80;2.13;;;22.50;57.60;;;;;;4995946;28;47086;-69
2022/08/19 12:58:12;;;;;;;3.57;2.70;;;;;;;;;;4996287;28;46525;-68
2022/08/19 13:00:38;;;;;;;3.67;2.50;;;;;;;;;;4998901;28;46380;-69
2022/08/19 13:03:03;;;;;;;3.50;2.77;;;22.80;65.00;;;;;;5000519;28;46530;-69
2022/08/19 13:05:33;;;;;;;3.27;2.10;;;22.90;55.80;;;;;;4997409;28;47268;-69
2022/08/19 13:07:59;;;;;;;3.63;2.60;;;22.80;68.50;;;;;;4997863;28;46494;-69
2022/08/19 13:10:35;;;;;;;4.30;2.47;;;22.80;55.40;;;;;;5001005;28;46631;-68
2022/08/19 13:13:03;;;;;;;3.50;2.27;;;22.70;67.20;;;;;;5001086;28;46515;-68
2022/08/19 13:15:30;;;;;;;4.40;2.43;;;;;;;;;;4997876;28;46515;-72
2022/08/19 13:17:57;;;;;;;3.77;2.50;;;23.10;53.70;;;;;;4994920;28;46428;-67
2022/08/19 13:20:24;;;;;;;8.57;3.03;;;23.30;61.80;;;;;;5001107;28;46700;-70
2022/08/19 13:22:51;;;;;;;10.60;3.20;;;;;;;;;;5000815;28;46655;-70
2022/08/19 13:25:19;;;;;;;5.30;3.23;;;;;;;;;;5000388;28;46971;-71